Time;durP1;ratioP1;P1;durP2;ratioP2;P2;SDS_P1;SDS_P2;PMS_P1;PMS_P2;Temp;Humidity;BMP_temperature;BMP_pressure;BME280_temperature;BME280_humidity;BME280_pressure;Samples;Min_cycle;Max_cycle;Signal;HPM_P1;HPM_P2
2022/07/21 00:02:20;;;;;;;;;;;;;;;20.94;61.95;100418.25;4928596;29;1193;-96
2022/07/21 00:04:46;;;;;;;;;;;;;;;20.93;62.13;100419.31;4942864;29;1518;-96
2022/07/21 00:07:13;;;;;;;;;;;;;;;20.93;62.11;100421.25;4948153;29;1445;-96
2022/07/21 00:09:40;;;;;;;;;;;;;;;20.93;62.12;100432.19;4945568;29;1880;-96
2022/07/21 00:12:07;;;;;;;;;;;;;;;20.92;61.86;100442.34;4940343;28;1348;-96
2022/07/21 00:14:34;;;;;;;;;;;;;;;20.90;61.89;100433.59;4966320;28;1193;-96
2022/07/21 00:17:00;;;;;;;;;;;;;;;20.91;62.06;100437.16;4959999;29;1911;-96
2022/07/21 00:19:28;;;;;;;;;;;;;;;20.90;61.85;100433.59;4947455;29;1231;-96
2022/07/21 00:21:54;;;;;;;;;;;;;;;20.90;62.01;100441.00;4973028;28;1658;-96
2022/07/21 00:27:03;;;;;;;;;;;;;;;20.89;62.01;100425.69;4934882;29;1253;-96
2022/07/21 00:29:30;;;;;;;;;;;;;;;20.86;61.84;100416.94;4947082;29;1468;-96
2022/07/21 00:31:57;;;;;;;;;;;;;;;20.86;61.96;100414.22;4946445;29;1207;-96
2022/07/21 00:34:24;;;;;;;;;;;;;;;20.87;61.89;100420.50;4945683;29;1387;-96
2022/07/21 00:36:51;;;;;;;;;;;;;;;20.86;61.84;100427.09;4945403;29;1915;-96
2022/07/21 00:39:18;;;;;;;;;;;;;;;20.84;61.94;100430.09;4945436;29;1849;-96
2022/07/21 00:41:45;;;;;;;;;;;;;;;20.84;61.79;100435.56;4946233;29;1286;-96
2022/07/21 00:44:12;;;;;;;;;;;;;;;20.84;61.92;100435.56;4945091;29;1306;-96
2022/07/21 00:46:39;;;;;;;;;;;;;;;20.83;61.81;100444.91;4946267;29;1361;-96
2022/07/21 00:49:05;;;;;;;;;;;;;;;20.82;61.89;100440.53;4946420;29;1268;-96
2022/07/21 00:51:32;;;;;;;;;;;;;;;20.81;61.88;100436.16;4945429;29;1210;-96
2022/07/21 00:53:59;;;;;;;;;;;;;;;20.81;62.02;100432.59;4946029;29;1408;-96
2022/07/21 00:56:26;;;;;;;;;;;;;;;20.80;61.71;100437.28;4953646;29;1888;-96
2022/07/21 00:58:53;;;;;;;;;;;;;;;20.79;61.72;100449.31;4953872;29;1339;-96
2022/07/21 01:01:20;;;;;;;;;;;;;;;20.78;61.90;100442.22;4948817;29;1344;-96
2022/07/21 01:03:47;;;;;;;;;;;;;;;20.78;61.94;100439.47;4946975;29;1849;-96
2022/07/21 01:06:14;;;;;;;;;;;;;;;20.78;61.77;100430.47;4948086;29;1244;-96
2022/07/21 01:08:41;;;;;;;;;;;;;;;20.76;61.87;100428.00;4947038;29;1281;-96
2022/07/21 01:11:07;;;;;;;;;;;;;;;20.76;61.87;100413.50;4947126;29;1266;-96
2022/07/21 01:13:41;;;;;;;;;;;;;;;20.75;61.81;100412.69;4946855;29;1874;-96
2022/07/21 01:16:08;;;;;;;;;;;;;;;20.75;61.62;100403.69;4947686;29;1914;-96
2022/07/21 01:18:34;;;;;;;;;;;;;;;20.75;61.67;100403.69;4947089;29;1212;-96
2022/07/21 01:21:01;;;;;;;;;;;;;;;20.74;61.64;100410.25;4946675;29;1271;-96
2022/07/21 01:23:28;;;;;;;;;;;;;;;20.74;61.83;100421.22;4941211;29;1403;-96
2022/07/21 01:25:55;;;;;;;;;;;;;;;20.72;61.81;100426.97;4946532;29;1304;-96
2022/07/21 01:28:22;;;;;;;;;;;;;;;20.72;61.74;100443.38;4947630;29;1180;-96
2022/07/21 01:30:48;;;;;;;;;;;;;;;20.71;61.66;100439.03;4947879;29;1182;-96
2022/07/21 01:33:15;;;;;;;;;;;;;;;20.71;61.78;100432.75;4946645;29;1219;-96
2022/07/21 01:35:44;;;;;;;;;;;;;;;20.70;61.59;100434.63;4946688;29;1906;-96
2022/07/21 01:41:28;;;;;;;;;;;;;;;20.70;61.59;100431.91;4956516;28;1599;-96
2022/07/21 01:43:42;;;;;;;;;;;;;;;20.67;61.73;100374.22;4952280;29;1298;-96
2022/07/21 01:46:10;;;;;;;;;;;;;;;20.66;61.75;100378.88;4952684;29;1410;-96
2022/07/21 01:48:36;;;;;;;;;;;;;;;20.66;61.45;100397.22;4948155;29;1200;-96
2022/07/21 01:51:03;;;;;;;;;;;;;;;20.65;61.51;100410.09;4947782;29;1310;-96
2022/07/21 01:53:30;;;;;;;;;;;;;;;20.65;61.79;100437.44;4959734;28;1447;-96
2022/07/21 01:55:57;;;;;;;;;;;;;;;20.65;61.51;100459.34;4965891;28;1964;-96
2022/07/21 01:58:23;;;;;;;;;;;;;;;20.63;61.69;100451.41;4966004;28;1213;-96
2022/07/21 02:00:50;;;;;;;;;;;;;;;20.63;61.57;100443.19;4965758;28;1307;-96
2022/07/21 02:03:17;;;;;;;;;;;;;;;20.62;61.60;100427.88;4965666;28;1774;-96
2022/07/21 02:05:44;;;;;;;;;;;;;;;20.61;61.66;100411.75;4966351;28;1192;-96
2022/07/21 02:08:11;;;;;;;;;;;;;;;20.60;61.59;100361.69;4966925;28;1359;-96
2022/07/21 02:10:39;;;;;;;;;;;;;;;20.59;61.50;100283.47;4974485;28;1304;-96
2022/07/21 02:13:06;;;;;;;;;;;;;;;20.60;61.73;100300.69;4960283;28;1286;-96
2022/07/21 02:15:33;;;;;;;;;;;;;;;20.58;61.66;100309.19;4968913;28;1989;-96
2022/07/21 02:18:00;;;;;;;;;;;;;;;20.59;61.61;100337.38;4963492;28;1272;-96
2022/07/21 02:20:26;;;;;;;;;;;;;;;20.58;61.51;100352.16;4975345;28;1227;-96
2022/07/21 02:22:53;;;;;;;;;;;;;;;20.58;61.64;100333.81;4973444;28;1670;-96
2022/07/21 02:25:19;;;;;;;;;;;;;;;20.58;61.57;100357.63;4961340;28;1220;-96
2022/07/21 02:27:46;;;;;;;;;;;;;;;20.57;61.56;100394.28;4961083;28;1262;-96
2022/07/21 02:30:13;;;;;;;;;;;;;;;20.57;61.40;100392.38;4961705;28;1174;-96
2022/07/21 02:32:40;;;;;;;;;;;;;;;20.57;61.46;100403.31;4961367;28;1208;-96
2022/07/21 02:35:06;;;;;;;;;;;;;;;20.56;61.30;100420.84;4961170;28;1386;-96
2022/07/21 02:37:33;;;;;;;;;;;;;;;20.56;61.53;100389.91;4956628;28;1976;-96
2022/07/21 02:39:59;;;;;;;;;;;;;;;20.55;61.30;100394.56;4957812;29;1331;-96
2022/07/21 02:42:26;;;;;;;;;;;;;;;20.55;61.62;100391.03;4957326;29;1462;-96
2022/07/21 02:44:53;;;;;;;;;;;;;;;20.55;61.33;100369.94;4957175;28;2021;-96
2022/07/21 02:47:19;;;;;;;;;;;;;;;20.53;61.40;100352.19;4961771;28;1619;-96
2022/07/21 02:49:47;;;;;;;;;;;;;;;20.52;61.14;100384.22;4960614;28;1292;-96
2022/07/21 02:52:13;;;;;;;;;;;;;;;20.52;61.35;100384.22;4960855;28;1843;-96
2022/07/21 02:54:40;;;;;;;;;;;;;;;20.52;61.24;100403.34;4960581;28;1390;-96
2022/07/21 02:57:06;;;;;;;;;;;;;;;20.52;61.34;100432.59;4960076;28;1974;-96
2022/07/21 02:59:33;;;;;;;;;;;;;;;20.51;61.35;100433.72;4961192;28;1221;-96
2022/07/21 03:02:00;;;;;;;;;;;;;;;20.51;61.44;100442.75;4958504;28;2857;-96
2022/07/21 03:04:26;;;;;;;;;;;;;;;20.51;61.32;100450.13;4960531;28;1203;-96
2022/07/21 03:06:53;;;;;;;;;;;;;;;20.49;61.40;100441.41;4959531;28;2052;-96
2022/07/21 03:09:19;;;;;;;;;;;;;;;20.48;61.44;100448.78;4960485;28;1395;-96
2022/07/21 03:11:46;;;;;;;;;;;;;;;20.49;61.20;100449.59;4960501;28;1476;-96
2022/07/21 03:14:13;;;;;;;;;;;;;;;20.48;61.38;100448.78;4960407;28;1396;-96
2022/07/21 03:16:39;;;;;;;;;;;;;;;20.48;61.32;100453.44;4960115;28;1906;-96
2022/07/21 03:19:06;;;;;;;;;;;;;;;20.47;61.20;100458.09;4960753;28;1211;-96
2022/07/21 03:21:32;;;;;;;;;;;;;;;20.47;61.26;100481.88;4959967;28;1262;-96
2022/07/21 03:23:59;;;;;;;;;;;;;;;20.46;61.42;100492.00;4959057;28;1978;-96
2022/07/21 03:26:25;;;;;;;;;;;;;;;20.46;61.23;100494.75;4959762;28;1294;-96
2022/07/21 03:28:52;;;;;;;;;;;;;;;20.43;61.39;100507.06;4959228;28;1206;-96
2022/07/21 03:31:18;;;;;;;;;;;;;;;20.45;61.38;100492.31;4959072;28;1431;-96
2022/07/21 03:33:45;;;;;;;;;;;;;;;20.43;61.18;100490.66;4948132;28;1502;-96
2022/07/21 03:36:11;;;;;;;;;;;;;;;20.42;61.01;100472.63;4950973;28;1910;-96
2022/07/21 03:38:38;;;;;;;;;;;;;;;20.42;61.34;100460.88;4958599;28;1667;-96
2022/07/21 03:41:04;;;;;;;;;;;;;;;20.40;61.18;100469.38;4959061;28;1187;-96
2022/07/21 03:43:31;;;;;;;;;;;;;;;20.42;61.05;100518.31;4958901;28;1363;-95
2022/07/21 03:45:58;;;;;;;;;;;;;;;20.41;61.33;100522.13;4950633;29;1618;-96
2022/07/21 03:48:24;;;;;;;;;;;;;;;20.41;61.09;100514.78;4954496;28;2019;-96
2022/07/21 03:50:50;;;;;;;;;;;;;;;20.40;61.21;100485.78;4961038;28;1336;-96
2022/07/21 03:53:17;;;;;;;;;;;;;;;20.38;60.95;100460.66;4955638;28;1970;-96
2022/07/21 03:55:45;;;;;;;;;;;;;;;20.37;61.30;100464.47;4959152;28;1564;-96
2022/07/21 03:58:12;;;;;;;;;;;;;;;20.37;61.08;100483.63;4958934;28;1915;-96
2022/07/21 04:00:39;;;;;;;;;;;;;;;20.37;60.88;100466.41;4959246;28;1517;-96
2022/07/21 04:03:05;;;;;;;;;;;;;;;20.36;60.87;100473.78;4961343;28;1695;-96
2022/07/21 04:05:32;;;;;;;;;;;;;;;20.38;61.16;100488.00;4962721;28;1187;-96
2022/07/21 04:07:58;;;;;;;;;;;;;;;20.37;61.05;100491.81;4960991;28;1764;-96
2022/07/21 04:10:26;;;;;;;;;;;;;;;20.38;61.17;100492.63;4961922;28;1565;-96
2022/07/21 04:12:52;;;;;;;;;;;;;;;20.36;61.11;100506.59;4962236;28;1182;-96
2022/07/21 04:15:20;;;;;;;;;;;;;;;20.35;60.79;100496.78;4961629;28;1639;-96
2022/07/21 04:17:48;;;;;;;;;;;;;;;20.35;61.04;100493.19;4962259;28;1910;-96
2022/07/21 04:20:16;;;;;;;;;;;;;;;20.34;60.80;100486.91;4962647;28;1258;-96
2022/07/21 04:22:42;;;;;;;;;;;;;;;20.33;61.12;100465.34;4978207;28;2031;-96
2022/07/21 04:25:09;;;;;;;;;;;;;;;20.32;61.04;100448.09;4962045;28;1214;-96
2022/07/21 04:27:36;;;;;;;;;;;;;;;20.31;61.00;100429.25;4966783;28;1227;-96
2022/07/21 04:30:02;;;;;;;;;;;;;;;20.30;61.09;100416.69;4981566;28;1335;-96
2022/07/21 04:32:29;;;;;;;;;;;;;;;20.30;60.88;100414.78;4962391;28;1547;-96
2022/07/21 04:34:56;;;;;;;;;;;;;;;20.29;60.98;100415.84;4961809;28;1533;-96
2022/07/21 04:37:22;;;;;;;;;;;;;;;20.30;60.79;100424.91;4961383;28;1978;-96
2022/07/21 04:39:49;;;;;;;;;;;;;;;20.30;60.93;100425.72;4965774;28;2063;-96
2022/07/21 04:42:15;;;;;;;;;;;;;;;20.29;60.72;100404.91;4963892;28;1727;-96
2022/07/21 04:44:42;;;;;;;;;;;;;;;20.29;60.97;100393.16;4962674;28;1304;-96
2022/07/21 04:47:08;;;;;;;;;;;;;;;20.27;60.98;100396.22;4962676;28;1190;-96
2022/07/21 04:49:35;;;;;;;;;;;;;;;20.27;61.01;100388.00;4961846;28;1422;-96
2022/07/21 04:52:01;;;;;;;;;;;;;;;20.27;60.83;100379.81;4958772;29;1854;-96
2022/07/21 04:54:28;;;;;;;;;;;;;;;20.28;60.71;100402.50;4942998;29;1191;-96
2022/07/21 04:56:55;;;;;;;;;;;;;;;20.28;60.78;100416.16;4957194;28;1906;-96
2022/07/21 04:59:21;;;;;;;;;;;;;;;20.28;60.95;100448.97;4962005;28;1194;-96
2022/07/21 05:01:48;;;;;;;;;;;;;;;20.27;60.99;100450.91;4946581;29;1273;-96
2022/07/21 05:04:14;;;;;;;;;;;;;;;20.26;60.94;100457.44;4942514;29;1414;-96
2022/07/21 05:06:41;;;;;;;;;;;;;;;20.26;60.87;100449.25;4952287;29;1673;-96
2022/07/21 05:09:08;;;;;;;;;;;;;;;20.25;60.97;100431.22;4961635;28;2050;-96
2022/07/21 05:11:34;;;;;;;;;;;;;;;20.24;60.90;100424.13;4977979;28;1191;-96
2022/07/21 05:14:01;;;;;;;;;;;;;;;20.23;60.95;100438.88;4960950;28;1281;-96
2022/07/21 05:16:27;;;;;;;;;;;;;;;20.24;61.05;100439.72;4960611;28;1902;-96
2022/07/21 05:18:54;;;;;;;;;;;;;;;20.23;60.84;100438.06;4977649;28;1198;-96
2022/07/21 05:21:20;;;;;;;;;;;;;;;20.23;60.95;100432.59;4961247;28;2475;-96
2022/07/21 05:23:47;;;;;;;;;;;;;;;20.23;61.04;100421.66;4961366;28;1190;-96
2022/07/21 05:26:13;;;;;;;;;;;;;;;20.22;60.85;100428.25;4961568;28;1560;-96
2022/07/21 05:28:40;;;;;;;;;;;;;;;20.21;61.01;100411.03;4963234;28;1567;-96
2022/07/21 05:31:07;;;;;;;;;;;;;;;20.22;61.05;100403.63;4958762;28;1891;-96
2022/07/21 05:33:33;;;;;;;;;;;;;;;20.20;60.82;100403.91;4948233;28;2116;-96
2022/07/21 05:36:00;;;;;;;;;;;;;;;20.20;61.00;100406.66;4947716;29;1973;-96
2022/07/21 05:38:26;;;;;;;;;;;;;;;20.20;60.74;100401.19;4957574;28;1914;-96
2022/07/21 05:40:53;;;;;;;;;;;;;;;20.19;60.59;100394.09;4961509;28;1372;-96
2022/07/21 05:43:19;;;;;;;;;;;;;;;20.19;60.76;100408.56;4961509;28;1996;-96
2022/07/21 05:45:46;;;;;;;;;;;;;;;20.20;60.89;100414.84;4962518;28;1243;-96
2022/07/21 05:48:14;;;;;;;;;;;;;;;20.19;60.82;100422.25;4961183;28;1222;-96
2022/07/21 05:50:41;;;;;;;;;;;;;;;20.18;60.92;100425.28;4960562;28;4565;-96
2022/07/21 05:53:07;;;;;;;;;;;;;;;20.20;60.83;100439.47;4961191;28;1203;-96
2022/07/21 05:55:34;;;;;;;;;;;;;;;20.18;60.63;100442.50;4961545;28;2070;-96
2022/07/21 05:58:00;;;;;;;;;;;;;;;20.17;60.77;100429.91;4961453;28;1887;-96
2022/07/21 06:00:27;;;;;;;;;;;;;;;20.17;60.85;100434.56;4960949;28;1591;-96
2022/07/21 06:02:53;;;;;;;;;;;;;;;20.17;60.94;100429.09;4951974;29;2959;-96
2022/07/21 06:05:20;;;;;;;;;;;;;;;20.16;60.58;100424.75;4957052;28;1740;-96
2022/07/21 06:07:48;;;;;;;;;;;;;;;20.15;60.74;100423.94;4941825;29;1331;-96
2022/07/21 06:10:14;;;;;;;;;;;;;;;20.17;60.73;100431.84;4951222;28;2109;-96
2022/07/21 06:12:41;;;;;;;;;;;;;;;20.16;60.79;100439.22;4960060;28;1986;-96
2022/07/21 06:15:08;;;;;;;;;;;;;;;20.16;60.78;100443.88;4959362;28;1863;-96
2022/07/21 06:17:34;;;;;;;;;;;;;;;20.17;60.87;100445.50;4941596;29;1979;-96
2022/07/21 06:20:01;;;;;;;;;;;;;;;20.16;60.71;100446.63;4942015;29;1382;-96
2022/07/21 06:22:28;;;;;;;;;;;;;;;20.15;60.80;100442.25;4959703;28;1838;-96
2022/07/21 06:24:54;;;;;;;;;;;;;;;20.15;60.60;100439.53;4960348;28;1368;-96
2022/07/21 06:27:21;;;;;;;;;;;;;;;20.15;60.64;100445.81;4960369;28;1553;-96
2022/07/21 06:29:47;;;;;;;;;;;;;;;20.14;60.76;100449.63;4960122;28;1560;-96
2022/07/21 06:32:14;;;;;;;;;;;;;;;20.15;60.60;100455.94;4976095;28;1310;-96
2022/07/21 06:34:40;;;;;;;;;;;;;;;20.15;60.83;100455.94;4959569;28;1823;-96
2022/07/21 06:37:07;;;;;;;;;;;;;;;20.14;60.66;100452.34;4958825;28;1985;-96
2022/07/21 06:39:33;;;;;;;;;;;;;;;20.13;60.75;100456.19;4959389;28;1688;-96
2022/07/21 06:42:00;;;;;;;;;;;;;;;20.13;60.80;100460.84;4960047;28;1750;-96
2022/07/21 06:44:26;;;;;;;;;;;;;;;20.14;60.49;100462.47;4960014;28;1587;-96
2022/07/21 06:46:53;;;;;;;;;;;;;;;20.12;60.87;100454.56;4958905;28;1889;-96
2022/07/21 06:49:19;;;;;;;;;;;;;;;20.13;60.57;100453.47;4960245;28;1317;-96
2022/07/21 06:51:46;;;;;;;;;;;;;;;20.12;60.72;100457.31;4958272;28;1955;-96
2022/07/21 06:54:12;;;;;;;;;;;;;;;20.12;60.72;100445.56;4959820;28;1208;-96
2022/07/21 06:56:39;;;;;;;;;;;;;;;20.12;60.66;100443.66;4947675;29;1457;-96
2022/07/21 06:59:06;;;;;;;;;;;;;;;20.12;60.82;100448.31;4940475;29;1989;-96
2022/07/21 07:01:33;;;;;;;;;;;;;;;20.12;60.75;100451.84;4954077;28;1591;-96
2022/07/21 07:04:00;;;;;;;;;;;;;;;20.12;60.74;100453.75;4958137;28;1626;-96
2022/07/21 07:06:26;;;;;;;;;;;;;;;20.12;60.49;100442.84;4959201;28;1507;-96
2022/07/21 07:08:53;;;;;;;;;;;;;;;20.11;60.77;100450.19;4960039;28;1389;-96
2022/07/21 07:11:19;;;;;;;;;;;;;;;20.11;60.82;100461.13;4960076;28;1600;-96
2022/07/21 07:13:46;;;;;;;;;;;;;;;20.11;60.59;100449.38;4977112;28;1268;-96
2022/07/21 07:16:13;;;;;;;;;;;;;;;20.11;60.72;100454.84;4959956;28;1280;-96
2022/07/21 07:18:39;;;;;;;;;;;;;;;20.11;60.64;100452.13;4942985;28;1962;-96
2022/07/21 07:21:06;;;;;;;;;;;;;;;20.10;60.59;100462.25;4968631;28;2174;-96
2022/07/21 07:23:32;;;;;;;;;;;;;;;20.10;60.51;100461.44;4949289;28;2131;-96
2022/07/21 07:25:59;;;;;;;;;;;;;;;20.11;60.51;100463.06;4959980;28;1210;-96
2022/07/21 07:28:25;;;;;;;;;;;;;;;20.10;60.53;100459.50;4960754;28;1867;-96
2022/07/21 07:30:52;;;;;;;;;;;;;;;20.10;60.78;100472.38;4954667;29;1758;-96
2022/07/21 07:33:20;;;;;;;;;;;;;;;20.09;60.83;100477.03;4955159;28;1372;-96
2022/07/21 07:35:47;;;;;;;;;;;;;;;20.10;60.68;100472.38;4960983;28;1230;-96
2022/07/21 07:38:13;;;;;;;;;;;;;;;20.10;60.58;100477.84;4964787;28;1980;-96
2022/07/21 07:40:48;;;;;;;;;;;;;;;20.09;60.38;100479.75;4969849;28;1405;-96
2022/07/21 07:43:27;;;;;;;;;;;;;;;20.09;60.68;100481.66;4969502;28;1221;-96
2022/07/21 07:45:54;;;;;;;;;;;;;;;20.09;60.80;100478.91;4969998;28;1957;-96
2022/07/21 07:48:21;;;;;;;;;;;;;;;20.09;60.45;100485.22;4948326;29;1466;-96
2022/07/21 07:50:48;;;;;;;;;;;;;;;20.10;60.65;100483.28;4946787;29;1362;-96
2022/07/21 07:53:14;;;;;;;;;;;;;;;20.09;60.63;100482.50;4965598;29;1190;-96
2022/07/21 07:55:41;;;;;;;;;;;;;;;20.09;60.62;100487.09;4965526;29;1328;-96
2022/07/21 07:58:08;;;;;;;;;;;;;;;20.08;60.78;100478.09;4947931;29;1985;-96
2022/07/21 08:00:35;;;;;;;;;;;;;;;20.08;60.48;100486.31;4961915;28;1282;-96
2022/07/21 08:03:03;;;;;;;;;;;;;;;20.09;60.63;100478.91;4964182;28;1492;-96
2022/07/21 08:05:29;;;;;;;;;;;;;;;20.08;60.53;100477.28;4967336;28;1276;-96
2022/07/21 08:07:56;;;;;;;;;;;;;;;20.09;60.67;100477.03;4966333;28;1319;-96
2022/07/21 08:10:23;;;;;;;;;;;;;;;20.08;60.37;100480.84;4965155;28;1395;-96
2022/07/21 08:12:49;;;;;;;;;;;;;;;20.08;60.73;100486.31;4964228;28;1567;-96
2022/07/21 08:15:16;;;;;;;;;;;;;;;20.08;60.38;100475.38;4965097;28;1318;-96
2022/07/21 08:17:43;;;;;;;;;;;;;;;20.08;60.56;100480.03;4961631;29;1906;-96
2022/07/21 08:20:10;;;;;;;;;;;;;;;20.08;60.77;100469.09;4956633;29;1163;-96
2022/07/21 08:22:36;;;;;;;;;;;;;;;20.07;60.70;100467.47;4956109;29;1453;-96
2022/07/21 08:25:03;;;;;;;;;;;;;;;20.07;60.62;100451.88;4961116;29;2083;-96
2022/07/21 08:27:30;;;;;;;;;;;;;;;20.08;60.69;100466.34;4964085;28;1209;-96
2022/07/21 08:29:56;;;;;;;;;;;;;;;20.08;60.58;100466.34;4962113;29;1205;-96
2022/07/21 08:32:23;;;;;;;;;;;;;;;20.08;60.40;100463.63;4948811;28;1321;-96
2022/07/21 08:34:49;;;;;;;;;;;;;;;20.08;60.65;100460.88;4965941;28;1442;-96
2022/07/21 08:37:16;;;;;;;;;;;;;;;20.06;60.70;100463.91;4967308;28;1975;-96
2022/07/21 08:39:43;;;;;;;;;;;;;;;20.07;60.46;100473.75;4966977;28;1871;-96
2022/07/21 08:42:09;;;;;;;;;;;;;;;20.07;60.46;100472.94;4966565;28;1194;-96
2022/07/21 08:44:36;;;;;;;;;;;;;;;20.07;60.58;100467.47;4965732;28;1362;-96
2022/07/21 08:47:03;;;;;;;;;;;;;;;20.07;60.52;100476.47;4966936;28;1515;-96
2022/07/21 08:49:30;;;;;;;;;;;;;;;20.08;60.47;100478.09;4963219;28;1312;-96
2022/07/21 08:51:56;;;;;;;;;;;;;;;20.08;60.32;100480.03;4947268;28;1861;-96
2022/07/21 08:54:23;;;;;;;;;;;;;;;20.08;60.44;100478.09;4966389;28;1437;-96
2022/07/21 08:56:50;;;;;;;;;;;;;;;20.07;60.50;100479.22;4967101;28;1270;-96
2022/07/21 08:59:16;;;;;;;;;;;;;;;20.06;60.43;100466.66;4966746;28;1958;-96
2022/07/21 09:01:43;;;;;;;;;;;;;;;20.07;60.65;100471.00;4967082;28;1167;-96
2022/07/21 09:04:10;;;;;;;;;;;;;;;20.06;60.28;100458.44;4966634;28;1410;-96
2022/07/21 09:06:37;;;;;;;;;;;;;;;20.08;60.59;100463.63;4967314;28;1324;-96
2022/07/21 09:09:04;;;;;;;;;;;;;;;20.08;60.54;100463.63;4965593;28;1889;-96
2022/07/21 09:11:32;;;;;;;;;;;;;;;20.07;60.66;100460.06;4964583;28;1265;-96
2022/07/21 09:13:59;;;;;;;;;;;;;;;20.08;60.33;100461.69;4965282;28;1178;-96
2022/07/21 09:16:26;;;;;;;;;;;;;;;20.07;60.30;100460.06;4964876;28;1903;-96
2022/07/21 09:18:52;;;;;;;;;;;;;;;20.07;60.47;100460.06;4958340;29;2054;-96
2022/07/21 09:21:19;;;;;;;;;;;;;;;20.09;60.37;100462.50;4962271;28;1246;-96
2022/07/21 09:23:45;;;;;;;;;;;;;;;20.07;60.52;100464.72;4964401;28;1850;-96
2022/07/21 09:26:12;;;;;;;;;;;;;;;20.08;60.62;100466.34;4955466;29;1821;-96
2022/07/21 09:28:39;;;;;;;;;;;;;;;20.08;60.57;100455.41;4963406;28;1226;-96
2022/07/21 09:31:05;;;;;;;;;;;;;;;20.07;60.29;100451.06;4964314;28;1282;-96
2022/07/21 09:33:32;;;;;;;;;;;;;;;20.07;60.67;100449.13;4964582;28;1385;-96
2022/07/21 09:35:59;;;;;;;;;;;;;;;20.07;60.56;100460.06;4964573;28;1243;-96
2022/07/21 09:38:26;;;;;;;;;;;;;;;20.08;60.36;100460.88;4963561;28;1973;-96
2022/07/21 09:40:52;;;;;;;;;;;;;;;20.08;60.61;100458.97;4963788;28;1522;-96
2022/07/21 09:43:19;;;;;;;;;;;;;;;20.07;60.69;100457.34;4965170;28;1304;-96
2022/07/21 09:45:45;;;;;;;;;;;;;;;20.08;60.64;100458.97;4965339;28;1345;-96
2022/07/21 09:48:12;;;;;;;;;;;;;;;20.08;60.50;100455.41;4964775;28;1337;-96
2022/07/21 09:50:39;;;;;;;;;;;;;;;20.08;60.73;100453.50;4964646;28;1294;-96
2022/07/21 09:53:05;;;;;;;;;;;;;;;20.08;60.64;100460.88;4964123;28;1384;-96
2022/07/21 09:55:32;;;;;;;;;;;;;;;20.08;60.64;100464.44;4961056;29;1288;-96
2022/07/21 09:57:59;;;;;;;;;;;;;;;20.09;60.40;100459.78;4944239;29;1903;-96
2022/07/21 10:00:25;;;;;;;;;;;;;;;20.09;60.71;100457.03;4944040;29;1271;-96
2022/07/21 10:02:52;;;;;;;;;;;;;;;20.09;60.49;100463.34;4958522;28;1874;-96
2022/07/21 10:05:19;;;;;;;;;;;;;;;20.09;60.56;100460.63;4964405;28;1233;-96
2022/07/21 10:07:45;;;;;;;;;;;;;;;20.09;60.40;100459.78;4963206;28;2041;-96
2022/07/21 10:10:12;;;;;;;;;;;;;;;20.08;60.71;100467.16;4963142;28;1298;-96
2022/07/21 10:12:38;;;;;;;;;;;;;;;20.09;60.64;100463.34;4964228;28;1396;-96
2022/07/21 10:15:05;;;;;;;;;;;;;;;20.09;60.67;100467.97;4964749;28;1213;-96
2022/07/21 10:17:32;;;;;;;;;;;;;;;20.10;60.33;100466.91;4965003;28;1178;-96
2022/07/21 10:19:59;;;;;;;;;;;;;;;20.10;60.29;100454.03;4964848;28;1932;-96
2022/07/21 10:22:26;;;;;;;;;;;;;;;20.10;60.62;100456.78;4964920;28;1353;-96
2022/07/21 10:24:52;;;;;;;;;;;;;;;20.11;60.64;100454.84;4964172;28;1333;-96
2022/07/21 10:27:19;;;;;;;;;;;;;;;20.10;60.33;100448.56;4964535;28;1369;-96
2022/07/21 10:29:45;;;;;;;;;;;;;;;20.13;60.41;100458.13;4963867;28;1493;-96
2022/07/21 10:32:12;;;;;;;;;;;;;;;20.11;60.42;100450.19;4961447;28;1652;-96
2022/07/21 10:34:39;;;;;;;;;;;;;;;20.12;60.56;100453.75;4962457;28;1395;-96
2022/07/21 10:37:06;;;;;;;;;;;;;;;20.11;60.49;100447.47;4962307;28;1280;-96
2022/07/21 10:39:33;;;;;;;;;;;;;;;20.12;60.32;100437.38;4964039;28;1984;-96
2022/07/21 10:42:02;;;;;;;;;;;;;;;20.12;60.57;100440.09;4963202;28;1227;-96
2022/07/21 10:44:30;;;;;;;;;;;;;;;20.12;60.35;100435.44;4962407;28;1386;-96
2022/07/21 10:46:56;;;;;;;;;;;;;;;20.13;60.49;100428.84;4964586;28;1296;-96
2022/07/21 10:49:23;;;;;;;;;;;;;;;20.14;60.25;100426.94;4963003;28;1312;-96
2022/07/21 10:51:50;;;;;;;;;;;;;;;20.14;60.33;100424.19;4964014;28;1478;-96
2022/07/21 10:54:18;;;;;;;;;;;;;;;20.14;60.58;100430.47;4964095;28;1880;-96
2022/07/21 10:56:49;;;;;;;;;;;;;;;20.13;60.55;100428.84;4961865;28;1836;-96
2022/07/21 10:59:18;;;;;;;;;;;;;;;20.14;60.32;100435.13;4973323;28;1956;-96
2022/07/21 11:01:45;;;;;;;;;;;;;;;20.14;60.37;100429.66;4967171;28;1298;-96
2022/07/21 11:04:16;;;;;;;;;;;;;;;20.14;60.28;100435.94;4968200;28;1875;-96
2022/07/21 11:06:48;;;;;;;;;;;;;;;20.15;60.33;100434.88;4973145;28;1325;-96
2022/07/21 11:09:20;;;;;;;;;;;;;;;20.15;60.45;100434.88;4972642;28;1601;-96
2022/07/21 11:11:49;;;;;;;;;;;;;;;20.16;60.56;100432.94;4973224;28;1364;-96
2022/07/21 11:16:56;;;;;;;;;;;;;;;20.17;60.58;100431.84;4973941;28;1765;-96
2022/07/21 11:19:23;;;;;;;;;;;;;;;20.17;60.70;100438.09;4971401;28;1986;-96
2022/07/21 11:21:53;;;;;;;;;;;;;;;20.17;60.65;100426.38;4972795;28;1384;-96
2022/07/21 11:24:20;;;;;;;;;;;;;;;20.18;60.33;100430.75;4971410;28;1182;-96
2022/07/21 11:26:48;;;;;;;;;;;;;;;20.17;60.41;100416.25;4982921;28;1202;-96
2022/07/21 11:29:15;;;;;;;;;;;;;;;20.19;60.44;100424.97;4971251;28;1329;-96
2022/07/21 11:31:43;;;;;;;;;;;;;;;20.18;60.39;100420.63;4971412;28;1259;-96
2022/07/21 11:34:16;;;;;;;;;;;;;;;20.20;60.44;100423.06;4969448;28;1274;-96
2022/07/21 11:36:43;;;;;;;;;;;;;;;20.20;60.70;100423.88;4968962;28;1339;-96
2022/07/21 11:39:10;;;;;;;;;;;;;;;20.20;60.60;100418.41;4970371;28;1978;-96
2022/07/21 11:41:39;;;;;;;;;;;;;;;20.22;60.56;100411.84;4962993;28;1274;-96
2022/07/21 11:44:06;;;;;;;;;;;;;;;20.22;60.54;100404.44;4951070;29;1365;-96
2022/07/21 11:46:33;;;;;;;;;;;;;;;20.22;60.60;100404.44;4949795;29;1265;-96
2022/07/21 11:49:00;;;;;;;;;;;;;;;20.23;60.80;100397.06;4967068;29;1362;-96
2022/07/21 11:51:27;;;;;;;;;;;;;;;20.24;60.81;100395.97;4949427;29;1242;-96
2022/07/21 11:53:55;;;;;;;;;;;;;;;20.24;60.51;100398.72;4949979;29;1288;-96
2022/07/21 11:56:22;;;;;;;;;;;;;;;20.25;60.78;100397.59;4952350;29;1355;-96
2022/07/21 11:58:49;;;;;;;;;;;;;;;20.25;60.79;100406.59;4954109;29;1883;-96
2022/07/21 12:01:16;;;;;;;;;;;;;;;20.25;60.77;100397.59;4949677;29;1714;-96
2022/07/21 12:03:43;;;;;;;;;;;;;;;20.27;60.83;100392.66;4953897;29;1367;-96
2022/07/21 12:06:10;;;;;;;;;;;;;;;20.26;60.82;100380.88;4962767;29;1421;-96
2022/07/21 12:08:37;;;;;;;;;;;;;;;20.28;60.70;100381.44;4958142;29;1081;-96
2022/07/21 12:11:04;;;;;;;;;;;;;;;20.29;60.78;100382.22;4952119;29;1204;-96
2022/07/21 12:13:31;;;;;;;;;;;;;;;20.29;60.45;100382.22;4952120;29;1764;-96
2022/07/21 12:15:58;;;;;;;;;;;;;;;20.30;60.45;100387.44;4963930;29;1559;-96
2022/07/21 12:18:26;;;;;;;;;;;;;;;20.30;60.68;100381.97;4967935;29;1910;-96
2022/07/21 12:21:03;;;;;;;;;;;;;;;20.30;60.70;100378.41;4972449;29;1225;-96
2022/07/21 12:23:29;;;;;;;;;;;;;;;20.32;60.79;100376.19;4965417;28;1526;-96
2022/07/21 12:25:57;;;;;;;;;;;;;;;20.33;60.71;100375.09;4968648;29;1424;-96
2022/07/21 12:28:24;;;;;;;;;;;;;;;20.34;60.73;100380.25;4969570;28;1432;-96
2022/07/21 12:30:55;;;;;;;;;;;;;;;20.35;60.50;100376.44;4974903;28;1336;-96
2022/07/21 12:33:25;;;;;;;;;;;;;;;20.35;60.79;100368.25;4978511;28;1395;-96
2022/07/21 12:35:55;;;;;;;;;;;;;;;20.37;60.93;100376.16;4962858;28;1390;-96
2022/07/21 12:38:23;;;;;;;;;;;;;;;20.37;60.52;100371.47;4989520;28;1886;-96
2022/07/21 12:40:51;;;;;;;;;;;;;;;20.39;60.77;100365.75;4988916;28;1288;-96
2022/07/21 12:43:25;;;;;;;;;;;;;;;20.39;60.72;100360.25;4992468;28;1278;-96
2022/07/21 12:45:55;;;;;;;;;;;;;;;20.40;60.88;100364.63;4996296;28;1158;-96
2022/07/21 12:48:26;;;;;;;;;;;;;;;20.41;60.87;100360.78;5012014;28;884;-96
2022/07/21 12:50:56;;;;;;;;;;;;;;;20.43;60.82;100362.13;4994456;28;1221;-96
2022/07/21 12:53:23;;;;;;;;;;;;;;;20.43;60.98;100359.38;4993103;28;1318;-96
2022/07/21 12:56:00;;;;;;;;;;;;;;;20.44;60.67;100349.25;4994495;28;1288;-96